Time;durP1;ratioP1;P1;durP2;ratioP2;P2;SDS_P1;SDS_P2;PMS_P1;PMS_P2;Temp;Humidity;BMP_temperature;BMP_pressure;BME280_temperature;BME280_humidity;BME280_pressure;Samples;Min_cycle;Max_cycle;Signal;HPM_P1;HPM_P2
2023/12/18 00:00:49;;;;;;;;;;;;;;;19.77;48.06;98743.00;625006;227;66099;-70
2023/12/18 00:03:17;;;;;;;;;;;;;;;19.78;48.05;98746.48;625036;227;63682;-70
2023/12/18 00:05:44;;;;;;;;;;;;;;;19.76;48.06;98741.38;625016;227;62563;-70
2023/12/18 00:08:12;;;;;;;;;;;;;;;19.78;48.07;98751.81;624945;227;62864;-70
2023/12/18 00:10:39;;;;;;;;;;;;;;;19.75;48.05;98761.08;625051;227;62724;-70
2023/12/18 00:13:07;;;;;;;;;;;;;;;19.79;48.05;98772.14;624988;227;62382;-70
2023/12/18 00:15:34;;;;;;;;;;;;;;;19.77;48.04;98766.20;624984;227;63541;-70
2023/12/18 00:18:02;;;;;;;;;;;;;;;19.76;48.03;98769.92;625050;227;64786;-70
2023/12/18 00:20:29;;;;;;;;;;;;;;;19.78;48.06;98775.83;625003;227;64620;-70
2023/12/18 00:22:57;;;;;;;;;;;;;;;19.77;48.07;98771.54;624979;227;64941;-70
2023/12/18 00:25:24;;;;;;;;;;;;;;;19.76;48.03;98760.06;624996;227;64488;-70
2023/12/18 00:27:51;;;;;;;;;;;;;;;19.76;48.06;98759.25;624981;227;64845;-70
2023/12/18 00:30:19;;;;;;;;;;;;;;;19.76;48.05;98760.06;625022;227;65435;-70
2023/12/18 00:32:46;;;;;;;;;;;;;;;19.77;48.04;98758.20;624948;227;65529;-70
2023/12/18 00:35:14;;;;;;;;;;;;;;;19.74;48.02;98744.26;624955;227;64674;-70
2023/12/18 00:37:41;;;;;;;;;;;;;;;19.73;48.03;98739.97;624979;227;65606;-70
2023/12/18 00:40:09;;;;;;;;;;;;;;;19.76;48.03;98740.58;624983;227;64966;-70
2023/12/18 00:42:36;;;;;;;;;;;;;;;19.77;48.00;98728.86;624954;226;64575;-70
2023/12/18 00:45:05;;;;;;;;;;;;;;;19.77;47.99;98737.67;624974;227;65226;-68
2023/12/18 00:47:33;;;;;;;;;;;;;;;19.77;47.97;98720.85;625000;227;62968;-68
2023/12/18 00:50:00;;;;;;;;;;;;;;;19.76;47.97;98713.90;624966;227;62505;-69
2023/12/18 00:52:28;;;;;;;;;;;;;;;19.74;47.99;98716.77;624966;227;63698;-71
2023/12/18 00:54:55;;;;;;;;;;;;;;;19.77;48.04;98710.19;624980;227;64908;-71
2023/12/18 00:57:23;;;;;;;;;;;;;;;19.75;47.93;98702.39;624961;227;64518;-71
2023/12/18 00:59:50;;;;;;;;;;;;;;;19.74;47.96;98704.25;624985;227;63278;-71
2023/12/18 01:02:18;;;;;;;;;;;;;;;19.77;47.95;98699.52;624965;227;66103;-71
2023/12/18 01:04:45;;;;;;;;;;;;;;;19.72;47.93;98694.83;624972;227;62429;-71
2023/12/18 01:07:13;;;;;;;;;;;;;;;19.77;47.95;98707.52;624947;227;64212;-68
2023/12/18 01:09:40;;;;;;;;;;;;;;;19.76;47.96;98689.89;624987;227;63066;-69
2023/12/18 01:12:08;;;;;;;;;;;;;;;19.73;47.96;98686.62;624973;227;62413;-69
2023/12/18 01:14:36;;;;;;;;;;;;;;;19.72;47.94;98695.67;624982;227;65253;-68
2023/12/18 01:17:03;;;;;;;;;;;;;;;19.76;47.96;98698.70;624948;227;65009;-68
2023/12/18 01:19:31;;;;;;;;;;;;;;;19.73;47.97;98686.62;624990;227;64633;-68
2023/12/18 01:21:58;;;;;;;;;;;;;;;19.73;48.03;98686.62;624939;227;65460;-68
2023/12/18 01:24:25;;;;;;;;;;;;;;;19.73;47.96;98694.62;625004;227;65002;-68
2023/12/18 01:26:53;;;;;;;;;;;;;;;19.74;47.95;98696.25;624981;227;64533;-68
2023/12/18 01:29:21;;;;;;;;;;;;;;;19.74;47.92;98690.91;625019;227;63016;-70
2023/12/18 01:31:48;;;;;;;;;;;;;;;19.76;48.00;98684.55;625022;227;62932;-70
2023/12/18 01:34:15;;;;;;;;;;;;;;;19.74;48.21;98685.58;624995;227;62608;-70
2023/12/18 01:36:43;;;;;;;;;;;;;;;19.75;48.13;98681.05;625028;227;63002;-70
2023/12/18 01:39:10;;;;;;;;;;;;;;;19.72;48.10;98674.33;625045;227;63571;-68
2023/12/18 01:41:38;;;;;;;;;;;;;;;19.74;48.05;98668.76;625011;227;62410;-70
2023/12/18 01:44:05;;;;;;;;;;;;;;;19.75;48.07;98659.70;624960;226;63143;-71
2023/12/18 01:46:34;;;;;;;;;;;;;;;19.76;48.10;98660.55;624990;227;64195;-68
2023/12/18 01:49:02;;;;;;;;;;;;;;;19.74;48.17;98666.09;625006;227;64525;-68
2023/12/18 01:51:30;;;;;;;;;;;;;;;19.73;48.15;98665.28;625016;227;65401;-68
2023/12/18 01:53:59;;;;;;;;;;;;;;;19.74;48.09;98658.09;624999;227;65391;-68
2023/12/18 01:56:28;;;;;;;;;;;;;;;19.73;48.10;98654.61;624984;227;64680;-68
2023/12/18 01:58:58;;;;;;;;;;;;;;;19.73;48.09;98651.14;625000;227;65428;-69
2023/12/18 02:01:27;;;;;;;;;;;;;;;19.71;48.10;98648.67;625007;227;65330;-69
2023/12/18 02:03:55;;;;;;;;;;;;;;;19.72;48.04;98646.81;624738;226;64546;-69
2023/12/18 02:06:22;;;;;;;;;;;;;;;19.72;48.03;98647.66;625016;227;65207;-69
2023/12/18 02:08:50;;;;;;;;;;;;;;;19.72;47.99;98652.99;625024;227;65001;-69
2023/12/18 02:11:17;;;;;;;;;;;;;;;19.73;47.97;98646.61;624956;227;64578;-69
2023/12/18 02:13:45;;;;;;;;;;;;;;;19.73;47.96;98641.27;625004;227;65647;-69
2023/12/18 02:16:12;;;;;;;;;;;;;;;19.71;48.00;98627.34;625017;227;65177;-69
2023/12/18 02:18:44;;;;;;;;;;;;;;;19.71;48.02;98629.20;624998;227;64646;-71
2023/12/18 02:21:11;;;;;;;;;;;;;;;19.72;47.95;98639.66;625015;227;65435;-70
2023/12/18 02:23:38;;;;;;;;;;;;;;;19.71;48.02;98638.01;624986;227;65084;-71
2023/12/18 02:26:06;;;;;;;;;;;;;;;19.72;47.98;98639.66;625003;227;64623;-71
2023/12/18 02:28:34;;;;;;;;;;;;;;;19.72;47.91;98634.33;625021;227;65534;-70
2023/12/18 02:31:02;;;;;;;;;;;;;;;19.72;47.94;98633.48;625020;227;63984;-71
2023/12/18 02:33:30;;;;;;;;;;;;;;;19.72;47.98;98634.33;624988;227;62437;-71
2023/12/18 02:35:58;;;;;;;;;;;;;;;19.70;47.93;98628.39;624993;227;65505;-71
2023/12/18 02:38:25;;;;;;;;;;;;;;;19.73;47.96;98635.94;624989;227;65019;-70
2023/12/18 02:40:52;;;;;;;;;;;;;;;19.72;47.92;98641.48;625008;227;64554;-71
2023/12/18 02:43:20;;;;;;;;;;;;;;;19.70;47.96;98636.39;625302;226;65461;-70
2023/12/18 02:45:47;;;;;;;;;;;;;;;19.71;47.94;98638.01;626159;226;66108;-70
2023/12/18 02:48:15;;;;;;;;;;;;;;;19.72;47.91;98633.48;626110;226;64569;-71
2023/12/18 02:50:42;;;;;;;;;;;;;;;19.71;47.92;98630.00;626104;226;63248;-71
2023/12/18 02:53:10;;;;;;;;;;;;;;;19.72;47.96;98636.98;626155;226;64790;-70
2023/12/18 02:55:37;;;;;;;;;;;;;;;19.73;47.99;98621.80;626134;226;64429;-70
2023/12/18 02:58:05;;;;;;;;;;;;;;;19.72;48.02;98623.66;626129;226;65482;-70
2023/12/18 03:00:32;;;;;;;;;;;;;;;19.71;47.99;98618.53;626117;226;65543;-71
2023/12/18 03:03:00;;;;;;;;;;;;;;;19.72;47.98;98620.14;626117;226;64619;-70
2023/12/18 03:05:27;;;;;;;;;;;;;;;19.69;48.01;98607.26;626132;226;65532;-70
2023/12/18 03:07:55;;;;;;;;;;;;;;;19.68;47.94;98601.11;626145;226;65020;-69
2023/12/18 03:10:22;;;;;;;;;;;;;;;19.72;48.04;98604.98;626121;226;65074;-69
2023/12/18 03:12:50;;;;;;;;;;;;;;;19.70;48.05;98596.38;626130;226;66332;-68
2023/12/18 03:15:17;;;;;;;;;;;;;;;19.72;47.96;98599.64;626122;226;65277;-68
2023/12/18 03:17:45;;;;;;;;;;;;;;;19.70;48.08;98588.38;626138;226;64588;-69
2023/12/18 03:20:12;;;;;;;;;;;;;;;19.71;47.97;98594.52;626144;226;65132;-69
2023/12/18 03:22:40;;;;;;;;;;;;;;;19.70;47.89;98583.05;626130;226;62968;-69
2023/12/18 03:25:07;;;;;;;;;;;;;;;19.70;48.03;98588.38;626113;226;64402;-69
2023/12/18 03:27:35;;;;;;;;;;;;;;;19.72;47.95;98588.98;626102;226;65643;-68
2023/12/18 03:30:02;;;;;;;;;;;;;;;19.71;47.92;98583.85;626151;226;65002;-68
2023/12/18 03:32:30;;;;;;;;;;;;;;;19.70;47.84;98585.71;626094;226;64631;-68
2023/12/18 03:34:57;;;;;;;;;;;;;;;19.70;47.94;98585.71;626142;226;65564;-68
2023/12/18 03:37:25;;;;;;;;;;;;;;;19.71;47.80;98581.19;626110;226;65205;-68
2023/12/18 03:39:52;;;;;;;;;;;;;;;19.70;47.89;98583.05;626150;226;64536;-68
2023/12/18 03:42:20;;;;;;;;;;;;;;;19.68;47.93;98569.11;626148;226;65434;-69
2023/12/18 03:44:47;;;;;;;;;;;;;;;19.70;47.78;98576.91;625015;226;62945;-69
2023/12/18 03:47:15;;;;;;;;;;;;;;;19.68;47.84;98579.78;624983;227;64273;-68
2023/12/18 03:49:42;;;;;;;;;;;;;;;19.70;47.85;98582.23;624973;227;63000;-68
2023/12/18 03:52:10;;;;;;;;;;;;;;;19.70;47.78;98575.05;624993;227;62977;-68
2023/12/18 03:54:37;;;;;;;;;;;;;;;19.69;47.81;98593.92;624988;227;62416;-69
2023/12/18 03:57:05;;;;;;;;;;;;;;;19.70;47.76;98584.91;624957;227;63136;-69
2023/12/18 03:59:32;;;;;;;;;;;;;;;19.70;47.87;98583.05;624985;227;63779;-68
2023/12/18 04:02:00;;;;;;;;;;;;;;;19.69;47.82;98578.73;624985;227;64394;-68
2023/12/18 04:04:27;;;;;;;;;;;;;;;19.69;47.84;98581.39;625008;227;65409;-70
2023/12/18 04:06:55;;;;;;;;;;;;;;;19.68;47.85;98577.11;625055;227;62427;-70
2023/12/18 04:09:22;;;;;;;;;;;;;;;19.68;47.95;98577.11;625007;227;62434;-71
2023/12/18 04:11:49;;;;;;;;;;;;;;;19.69;47.93;98586.73;624996;227;63611;-70
2023/12/18 04:14:17;;;;;;;;;;;;;;;19.69;47.82;98586.73;624972;227;65256;-68
2023/12/18 04:16:44;;;;;;;;;;;;;;;19.69;47.91;98585.92;624997;227;64419;-68
2023/12/18 04:19:12;;;;;;;;;;;;;;;19.68;47.83;98593.11;625014;227;65158;-68
2023/12/18 04:21:39;;;;;;;;;;;;;;;19.67;47.81;98594.16;625027;227;64949;-68
2023/12/18 04:24:07;;;;;;;;;;;;;;;19.67;47.86;98588.83;625004;227;65881;-68
2023/12/18 04:26:34;;;;;;;;;;;;;;;19.68;47.88;98595.78;624958;227;65138;-68
2023/12/18 04:29:02;;;;;;;;;;;;;;;19.66;47.86;98581.84;624987;227;65026;-69
2023/12/18 04:31:30;;;;;;;;;;;;;;;19.69;47.81;98585.92;625019;227;64527;-68
2023/12/18 04:33:57;;;;;;;;;;;;;;;19.68;47.73;98593.11;624955;227;64922;-69
2023/12/18 04:36:25;;;;;;;;;;;;;;;19.67;47.76;98591.50;624967;227;63050;-69
2023/12/18 04:38:52;;;;;;;;;;;;;;;19.67;47.70;98579.98;624994;227;62469;-68
2023/12/18 04:41:23;;;;;;;;;;;;;;;19.64;47.78;98583.92;624967;227;65636;-70
2023/12/18 04:43:50;;;;;;;;;;;;;;;19.66;47.79;98576.52;624946;226;65068;-70
2023/12/18 04:46:18;;;;;;;;;;;;;;;19.67;47.72;98587.98;624990;227;64664;-71
2023/12/18 04:48:45;;;;;;;;;;;;;;;19.68;47.74;98597.64;624959;227;65207;-70
2023/12/18 04:51:13;;;;;;;;;;;;;;;19.68;47.88;98594.97;625004;227;63789;-71
2023/12/18 04:53:41;;;;;;;;;;;;;;;19.67;47.79;98590.66;624951;227;64588;-70
2023/12/18 04:56:08;;;;;;;;;;;;;;;19.65;47.85;98590.87;624990;227;63879;-71
2023/12/18 04:58:36;;;;;;;;;;;;;;;19.66;47.77;98581.04;624988;227;65059;-71
2023/12/18 05:01:03;;;;;;;;;;;;;;;19.65;47.81;98585.53;625010;227;64515;-71
2023/12/18 05:03:31;;;;;;;;;;;;;;;19.67;47.80;98593.33;624990;227;63020;-71
2023/12/18 05:05:59;;;;;;;;;;;;;;;19.66;47.81;98591.70;625037;227;62885;-70
2023/12/18 05:08:26;;;;;;;;;;;;;;;19.67;47.82;98588.83;625027;227;62477;-70
2023/12/18 05:10:54;;;;;;;;;;;;;;;19.68;47.79;98590.45;625004;227;65463;-71
2023/12/18 05:13:22;;;;;;;;;;;;;;;19.66;47.82;98591.70;625028;227;62922;-71
2023/12/18 05:15:51;;;;;;;;;;;;;;;19.68;47.79;98589.64;624993;227;62379;-71
2023/12/18 05:18:18;;;;;;;;;;;;;;;19.64;47.84;98583.92;624991;227;63044;-71
2023/12/18 05:20:46;;;;;;;;;;;;;;;19.64;47.78;98589.25;625046;227;64516;-71
2023/12/18 05:23:13;;;;;;;;;;;;;;;19.68;47.81;98584.30;624995;227;65605;-68
2023/12/18 05:25:41;;;;;;;;;;;;;;;19.66;47.79;98578.38;625016;227;65474;-69
2023/12/18 05:28:08;;;;;;;;;;;;;;;19.66;47.81;98573.04;625005;227;65675;-68
2023/12/18 05:30:36;;;;;;;;;;;;;;;19.65;47.84;98566.86;624974;227;64648;-68
2023/12/18 05:33:04;;;;;;;;;;;;;;;19.66;47.80;98573.04;625005;227;65430;-68
2023/12/18 05:35:31;;;;;;;;;;;;;;;19.67;47.81;98571.98;625008;227;64742;-69
2023/12/18 05:37:59;;;;;;;;;;;;;;;19.65;47.85;98571.39;625002;227;64560;-69
2023/12/18 05:40:26;;;;;;;;;;;;;;;19.66;47.89;98570.38;625001;227;65473;-70
2023/12/18 05:42:54;;;;;;;;;;;;;;;19.65;47.84;98574.05;624954;226;65633;-69
2023/12/18 05:45:21;;;;;;;;;;;;;;;19.64;47.95;98567.91;625028;227;64589;-69
2023/12/18 05:47:49;;;;;;;;;;;;;;;19.66;47.80;98565.84;625005;227;64930;-70
2023/12/18 05:50:16;;;;;;;;;;;;;;;19.65;47.76;98568.72;625007;227;65199;-70
2023/12/18 05:52:44;;;;;;;;;;;;;;;19.66;47.84;98573.04;624965;227;64360;-69
2023/12/18 05:55:11;;;;;;;;;;;;;;;19.64;47.73;98578.58;625008;227;65704;-67
2023/12/18 05:57:39;;;;;;;;;;;;;;;19.64;47.76;98567.91;625005;227;65394;-69
2023/12/18 06:00:07;;;;;;;;;;;;;;;19.65;47.73;98563.39;624981;227;62414;-69
2023/12/18 06:02:35;;;;;;;;;;;;;;;19.64;47.80;98567.91;624973;227;65531;-69
2023/12/18 06:05:03;;;;;;;;;;;;;;;19.62;47.68;98563.84;625020;227;65003;-69
2023/12/18 06:07:31;;;;;;;;;;;;;;;19.64;47.66;98562.58;624995;227;62501;-69
2023/12/18 06:09:58;;;;;;;;;;;;;;;19.61;47.67;98568.34;625023;227;63066;-69
2023/12/18 06:12:25;;;;;;;;;;;;;;;19.62;47.66;98575.31;625025;227;65283;-69
2023/12/18 06:14:53;;;;;;;;;;;;;;;19.62;47.74;98582.51;624968;227;64668;-69
2023/12/18 06:17:21;;;;;;;;;;;;;;;19.61;47.66;98579.00;624967;227;65261;-69
2023/12/18 06:19:49;;;;;;;;;;;;;;;19.63;47.67;98590.27;625018;227;65036;-69
2023/12/18 06:22:16;;;;;;;;;;;;;;;19.62;47.68;98585.98;624993;227;62590;-71
2023/12/18 06:24:44;;;;;;;;;;;;;;;19.61;47.73;98592.34;625002;227;66110;-71
2023/12/18 06:27:11;;;;;;;;;;;;;;;19.65;47.64;98598.87;625025;227;62882;-71
2023/12/18 06:29:39;;;;;;;;;;;;;;;19.63;47.63;98592.94;624947;227;62455;-71
2023/12/18 06:32:06;;;;;;;;;;;;;;;19.66;47.63;98613.05;624927;227;65577;-71
2023/12/18 06:34:34;;;;;;;;;;;;;;;19.63;47.63;98605.46;625036;227;63715;-71
2023/12/18 06:37:01;;;;;;;;;;;;;;;19.60;47.69;98608.58;624973;227;62478;-71
2023/12/18 06:39:29;;;;;;;;;;;;;;;19.62;47.64;98607.32;625005;227;65499;-71
2023/12/18 06:41:56;;;;;;;;;;;;;;;19.64;47.69;98607.92;624956;227;65617;-71
2023/12/18 06:44:24;;;;;;;;;;;;;;;19.59;47.69;98599.77;624929;226;64628;-71
2023/12/18 06:46:51;;;;;;;;;;;;;;;19.63;47.83;98602.80;625036;227;65440;-70
2023/12/18 06:49:19;;;;;;;;;;;;;;;19.62;48.02;98601.98;625014;227;65193;-71
2023/12/18 06:51:49;;;;;;;;;;;;;;;19.62;47.79;98604.66;624958;227;64550;-70
2023/12/18 06:54:15;;;;;;;;;;;;;;;19.61;47.92;98597.67;624943;226;65226;-71
2023/12/18 06:56:43;;;;;;;;;;;;;;;19.62;47.75;98591.31;625034;227;63015;-69
2023/12/18 06:59:10;;;;;;;;;;;;;;;19.62;47.73;98593.98;625000;227;62506;-69
2023/12/18 07:01:38;;;;;;;;;;;;;;;19.60;47.65;98590.72;624999;227;62671;-69
2023/12/18 07:04:06;;;;;;;;;;;;;;;19.62;47.64;98596.66;624914;227;65049;-70
2023/12/18 07:06:34;;;;;;;;;;;;;;;19.62;47.64;98585.98;624914;227;62670;-73
2023/12/18 07:09:01;;;;;;;;;;;;;;;19.61;47.78;98572.86;624999;227;64323;-69
2023/12/18 07:11:29;;;;;;;;;;;;;;;19.60;47.51;98572.05;624961;227;65027;-69
2023/12/18 07:13:56;;;;;;;;;;;;;;;19.61;47.52;98568.34;625008;227;65729;-69
2023/12/18 07:16:24;;;;;;;;;;;;;;;19.59;49.14;98567.77;624273;227;65448;-69
2023/12/18 07:18:51;;;;;;;;;;;;;;;19.57;47.94;98559.17;624985;227;65134;-70
2023/12/18 07:21:19;;;;;;;;;;;;;;;19.60;47.86;98563.24;624962;227;64574;-69
2023/12/18 07:23:46;;;;;;;;;;;;;;;19.59;51.26;98553.59;624783;227;62952;-70
2023/12/18 07:26:14;;;;;;;;;;;;;;;19.57;55.05;98556.50;624775;227;65033;-72
2023/12/18 07:28:42;;;;;;;;;;;;;;;19.57;53.81;98556.50;624958;227;64482;-72
2023/12/18 07:31:10;;;;;;;;;;;;;;;19.56;47.78;98538.89;624857;227;65249;-69
2023/12/18 07:33:37;;;;;;;;;;;;;;;19.57;48.25;98540.50;624965;227;66106;-69
2023/12/18 07:36:05;;;;;;;;;;;;;;;19.56;47.13;98533.55;624905;227;64578;-68
2023/12/18 07:38:33;;;;;;;;;;;;;;;19.59;53.29;98538.44;624909;227;65489;-70
2023/12/18 07:41:02;;;;;;;;;;;;;;;19.57;53.07;98537.84;624939;227;62882;-73
2023/12/18 07:43:29;;;;;;;;;;;;;;;19.56;46.48;98535.38;624888;226;62465;-71
2023/12/18 07:45:57;;;;;;;;;;;;;;;19.58;45.95;98547.45;622711;227;63144;-69
2023/12/18 07:48:25;;;;;;;;;;;;;;;19.56;46.14;98533.55;617820;227;62670;-69
2023/12/18 07:50:52;;;;;;;;;;;;;;;19.59;46.15;98537.59;617718;229;64567;-69
2023/12/18 07:53:20;;;;;;;;;;;;;;;19.59;46.63;98532.26;619765;227;65493;-70
2023/12/18 07:55:47;;;;;;;;;;;;;;;19.60;46.67;98542.72;621440;227;68292;-70
2023/12/18 07:58:15;;;;;;;;;;;;;;;19.58;46.92;98547.45;623020;227;64665;-72
2023/12/18 08:00:43;;;;;;;;;;;;;;;19.60;47.63;98552.58;621624;227;65415;-73
2023/12/18 08:03:10;;;;;;;;;;;;;;;19.59;49.91;98561.59;621282;228;62927;-70
2023/12/18 08:05:38;;;;;;;;;;;;;;;19.59;50.34;98562.44;628599;225;65947;-73
2023/12/18 08:08:05;;;;;;;;;;;;;;;19.59;46.15;98564.27;626088;225;66526;-71
2023/12/18 08:10:33;;;;;;;;;;;;;;;19.60;45.59;98566.72;619790;227;64746;-71
2023/12/18 08:13:01;;;;;;;;;;;;;;;19.61;45.89;98564.86;618932;227;64544;-70
2023/12/18 08:15:28;;;;;;;;;;;;;;;19.55;45.93;98563.91;622008;227;61673;-71
2023/12/18 08:17:56;;;;;;;;;;;;;;;19.63;46.10;98571.60;619886;227;62718;-73
2023/12/18 08:20:23;;;;;;;;;;;;;;;19.63;45.23;98563.59;622691;227;63592;-70
2023/12/18 08:22:51;;;;;;;;;;;;;;;19.65;45.42;98564.20;621676;227;62701;-69
2023/12/18 08:25:20;;;;;;;;;;;;;;;19.67;46.11;98566.66;621188;227;62710;-68
2023/12/18 08:27:48;;;;;;;;;;;;;;;19.64;46.41;98567.91;619564;227;64629;-70
2023/12/18 08:30:15;;;;;;;;;;;;;;;19.61;46.40;98556.86;623891;227;64954;-73
2023/12/18 08:32:42;;;;;;;;;;;;;;;19.66;46.41;98568.52;620809;227;62915;-69
2023/12/18 08:35:10;;;;;;;;;;;;;;;19.65;48.96;98553.53;618174;227;64610;-70
2023/12/18 08:37:38;;;;;;;;;;;;;;;19.62;49.70;98547.84;619614;227;65284;-70
2023/12/18 08:40:06;;;;;;;;;;;;;;;19.65;50.30;98556.20;621512;227;64959;-69
2023/12/18 08:42:33;;;;;;;;;;;;;;;19.63;52.46;98554.79;621866;227;64781;-68
2023/12/18 08:48:22;;;;;;;;;;;;;;;19.56;53.58;98538.89;622308;227;41061;-69
2023/12/18 08:50:50;;;;;;;;;;;;;;;19.56;49.79;98538.89;620944;227;62411;-69
2023/12/18 08:53:17;;;;;;;;;;;;;;;19.58;48.93;98535.98;620987;227;65588;-69
2023/12/18 08:55:45;;;;;;;;;;;;;;;19.59;47.19;98538.44;621108;227;65171;-68
2023/12/18 08:58:12;;;;;;;;;;;;;;;19.60;46.76;98520.57;619886;227;64702;-69
2023/12/18 09:00:40;;;;;;;;;;;;;;;19.59;46.75;98518.92;619304;227;65546;-70
2023/12/18 09:03:07;;;;;;;;;;;;;;;19.61;46.32;98517.66;618062;227;64719;-69
2023/12/18 09:05:35;;;;;;;;;;;;;;;19.62;45.70;98505.98;620362;227;62392;-70
2023/12/18 09:08:05;;;;;;;;;;;;;;;19.65;45.50;98504.72;624390;227;63240;-71
2023/12/18 09:10:33;;;;;;;;;;;;;;;19.64;45.46;98498.57;622317;226;64078;-68
2023/12/18 09:13:00;;;;;;;;;;;;;;;19.66;46.67;98496.50;620447;227;64560;-68
2023/12/18 09:15:28;;;;;;;;;;;;;;;19.67;46.85;98499.97;619909;227;63914;-69
2023/12/18 09:17:55;;;;;;;;;;;;;;;19.67;45.84;98494.64;622191;227;65137;-69
2023/12/18 09:20:23;;;;;;;;;;;;;;;19.67;46.58;98487.48;624817;227;64688;-68
2023/12/18 09:22:52;;;;;;;;;;;;;;;19.66;47.88;98485.83;624908;227;65436;-68
2023/12/18 09:25:19;;;;;;;;;;;;;;;19.64;48.36;98463.90;624837;227;65008;-68
2023/12/18 09:27:47;;;;;;;;;;;;;;;19.63;48.57;98462.25;624910;227;64514;-69
2023/12/18 09:30:14;;;;;;;;;;;;;;;19.65;49.12;98460.19;624902;227;63118;-68
2023/12/18 09:32:42;;;;;;;;;;;;;;;19.65;53.88;98462.04;624798;227;65042;-68
2023/12/18 09:35:10;;;;;;;;;;;;;;;19.62;54.05;98457.97;624871;227;64647;-69
2023/12/18 09:37:38;;;;;;;;;;;;;;;19.60;55.38;98446.71;623664;227;65984;-68
2023/12/18 09:40:07;;;;;;;;;;;;;;;19.59;53.67;98452.26;618490;227;65248;-69
2023/12/18 09:42:34;;;;;;;;;;;;;;;19.57;51.53;98444.50;617744;229;62698;-68
2023/12/18 09:45:04;;;;;;;;;;;;;;;19.61;53.98;98445.66;617661;229;63904;-68
2023/12/18 09:47:31;;;;;;;;;;;;;;;19.59;54.38;98442.43;617735;229;65029;-68
2023/12/18 09:49:59;;;;;;;;;;;;;;;19.59;54.56;98437.09;617816;229;62445;-74
2023/12/18 09:55:51;;;;;;;;;;;;;;;19.64;46.76;98425.72;617879;229;37069;-69
2023/12/18 09:58:19;;;;;;;;;;;;;;;19.65;46.92;98425.52;617801;228;62267;-68
2023/12/18 10:00:47;;;;;;;;;;;;;;;19.65;47.08;98422.84;617745;229;65688;-69
2023/12/18 10:03:16;;;;;;;;;;;;;;;19.65;50.50;98425.52;617850;229;65101;-68
2023/12/18 10:05:45;;;;;;;;;;;;;;;19.64;51.00;98423.90;617813;229;62488;-69
2023/12/18 10:08:12;;;;;;;;;;;;;;;19.64;55.15;98418.56;617778;229;65449;-69
2023/12/18 10:10:40;;;;;;;;;;;;;;;19.62;52.84;98415.30;617820;229;65004;-68
2023/12/18 10:13:09;;;;;;;;;;;;;;;19.63;52.66;98408.92;617859;229;64576;-68
2023/12/18 10:15:38;;;;;;;;;;;;;;;19.63;50.69;98406.25;617738;229;65421;-69
2023/12/18 10:18:05;;;;;;;;;;;;;;;19.63;49.99;98400.11;617874;229;62733;-69
2023/12/18 10:20:34;;;;;;;;;;;;;;;19.62;50.14;98403.83;617789;229;62439;-69
2023/12/18 10:23:02;;;;;;;;;;;;;;;19.64;48.43;98402.56;617746;229;65418;-68
2023/12/18 10:25:31;;;;;;;;;;;;;;;19.64;48.64;98394.56;617674;227;65505;-68
2023/12/18 10:27:58;;;;;;;;;;;;;;;19.62;48.03;98387.83;617745;229;64668;-68
2023/12/18 10:30:28;;;;;;;;;;;;;;;19.65;46.96;98382.84;617781;229;65455;-68
2023/12/18 10:32:56;;;;;;;;;;;;;;;19.66;46.29;98381.02;618761;227;65107;-68
2023/12/18 10:35:24;;;;;;;;;;;;;;;19.63;46.46;98373.44;617612;229;65641;-68
2023/12/18 10:37:55;;;;;;;;;;;;;;;19.67;50.37;98372.80;617816;229;63034;-69
2023/12/18 10:40:25;;;;;;;;;;;;;;;19.67;49.36;98369.29;617828;229;62787;-68
2023/12/18 10:43:10;;;;;;;;;;;;;;;19.67;46.95;98370.13;617677;227;64401;-69
2023/12/18 10:45:38;;;;;;;;;;;;;;;19.62;46.38;98359.30;617751;229;62672;-70
2023/12/18 10:48:07;;;;;;;;;;;;;;;19.66;46.11;98349.01;618721;227;62971;-71
2023/12/18 10:50:35;;;;;;;;;;;;;;;19.67;45.82;98348.80;617745;229;64749;-71
2023/12/18 10:53:04;;;;;;;;;;;;;;;19.65;45.84;98347.36;617789;229;64104;-71
2023/12/18 10:55:32;;;;;;;;;;;;;;;19.68;45.81;98350.41;617778;229;65207;-71
2023/12/18 10:58:01;;;;;;;;;;;;;;;19.70;45.82;98355.52;617780;229;64552;-71
2023/12/18 11:00:28;;;;;;;;;;;;;;;19.67;45.84;98343.46;617770;229;63293;-70
2023/12/18 11:02:56;;;;;;;;;;;;;;;19.69;45.83;98338.69;617835;229;62905;-68
2023/12/18 11:05:25;;;;;;;;;;;;;;;19.66;45.83;98327.67;617737;229;63508;-69
2023/12/18 11:07:52;;;;;;;;;;;;;;;19.68;45.79;98328.27;617823;229;65631;-69
2023/12/18 11:10:20;;;;;;;;;;;;;;;19.69;45.83;98328.02;617784;229;64993;-70
2023/12/18 11:12:49;;;;;;;;;;;;;;;19.69;45.78;98329.88;617755;229;62589;-73
2023/12/18 11:15:33;;;;;;;;;;;;;;;19.69;45.82;98325.34;617687;228;67800;-70
2023/12/18 11:18:19;;;;;;;;;;;;;;;19.68;45.82;98323.73;617763;229;65287;-68
2023/12/18 11:20:46;;;;;;;;;;;;;;;19.69;45.83;98330.69;617799;229;64697;-68
2023/12/18 11:23:16;;;;;;;;;;;;;;;19.69;45.87;98322.68;617743;229;65466;-71
2023/12/18 11:25:44;;;;;;;;;;;;;;;19.70;45.83;98326.99;617698;229;62944;-70
2023/12/18 11:28:12;;;;;;;;;;;;;;;19.67;45.84;98319.45;617770;229;62369;-69
2023/12/18 11:30:43;;;;;;;;;;;;;;;19.70;45.90;98326.99;617807;229;63366;-69
2023/12/18 11:33:12;;;;;;;;;;;;;;;19.69;45.91;98321.88;617722;229;64921;-70
2023/12/18 11:35:41;;;;;;;;;;;;;;;19.68;46.30;98318.40;617761;229;64763;-67
2023/12/18 11:38:09;;;;;;;;;;;;;;;19.71;47.00;98322.46;617684;228;63277;-70
2023/12/18 11:40:38;;;;;;;;;;;;;;;19.70;46.99;98312.85;617754;229;65342;-72
2023/12/18 11:43:07;;;;;;;;;;;;;;;19.71;46.39;98317.13;617782;229;64758;-71
2023/12/18 11:45:39;;;;;;;;;;;;;;;19.69;46.40;98305.88;617792;229;65620;-70
2023/12/18 11:48:08;;;;;;;;;;;;;;;19.70;46.58;98316.33;617593;228;62097;-71
2023/12/18 11:50:38;;;;;;;;;;;;;;;19.71;46.21;98309.94;617753;229;62692;-71
2023/12/18 11:53:10;;;;;;;;;;;;;;;19.69;46.26;98300.54;617730;229;63314;-70
2023/12/18 11:55:44;;;;;;;;;;;;;;;19.71;46.21;98317.13;617550;228;62881;-70
2023/12/18 11:58:09;;;;;;;;;;;;;;;19.70;46.33;98310.19;617559;228;63580;-71
2023/12/18 12:00:38;;;;;;;;;;;;;;;19.71;46.37;98301.94;617752;229;62942;-69
2023/12/18 12:03:10;;;;;;;;;;;;;;;19.72;46.23;98306.24;617810;229;65182;-69
2023/12/18 12:05:38;;;;;;;;;;;;;;;19.72;46.19;98294.73;617789;229;64658;-68
2023/12/18 12:08:06;;;;;;;;;;;;;;;19.72;46.18;98300.91;617777;229;63432;-69
2023/12/18 12:10:40;;;;;;;;;;;;;;;19.72;46.21;98292.91;617834;229;63145;-69
2023/12/18 12:13:08;;;;;;;;;;;;;;;19.73;46.20;98293.72;617753;229;62668;-70
2023/12/18 12:15:36;;;;;;;;;;;;;;;19.71;46.14;98296.60;617696;229;63305;-69
2023/12/18 12:18:04;;;;;;;;;;;;;;;19.72;46.12;98289.41;617841;229;65150;-69
2023/12/18 12:20:32;;;;;;;;;;;;;;;19.73;46.09;98291.05;621038;227;62717;-70
2023/12/18 12:23:00;;;;;;;;;;;;;;;19.73;46.06;98291.05;624917;227;62925;-68
2023/12/18 12:25:28;;;;;;;;;;;;;;;19.71;46.19;98277.13;624887;227;62939;-69
2023/12/18 12:27:55;;;;;;;;;;;;;;;19.70;46.04;98273.65;624894;227;64773;-69
2023/12/18 12:30:23;;;;;;;;;;;;;;;19.73;46.08;98273.18;624850;227;66078;-71
2023/12/18 12:32:52;;;;;;;;;;;;;;;19.73;46.06;98273.18;624943;227;64954;-70
2023/12/18 12:35:20;;;;;;;;;;;;;;;19.71;46.04;98269.92;624894;227;62276;-69
2023/12/18 12:37:47;;;;;;;;;;;;;;;19.72;46.05;98279.57;624864;227;64934;-68
2023/12/18 12:40:15;;;;;;;;;;;;;;;19.75;46.01;98275.59;624847;227;64916;-69
2023/12/18 12:42:43;;;;;;;;;;;;;;;19.73;45.97;98273.18;624902;226;65503;-69
2023/12/18 12:45:14;;;;;;;;;;;;;;;19.71;46.07;98264.59;626012;226;62990;-69
2023/12/18 12:47:41;;;;;;;;;;;;;;;19.73;46.03;98272.38;626050;226;65078;-71
2023/12/18 12:50:10;;;;;;;;;;;;;;;19.72;46.08;98262.73;625996;226;64726;-71
2023/12/18 12:52:38;;;;;;;;;;;;;;;19.72;45.97;98260.90;626021;226;65687;-69
2023/12/18 12:55:06;;;;;;;;;;;;;;;19.73;45.83;98264.38;626010;226;63217;-70
2023/12/18 12:57:33;;;;;;;;;;;;;;;19.71;45.79;98266.45;625957;226;64859;-70